sensor_id;sensor_type;location;lat;lon;timestamp;pressure;altitude;pressure_sealevel;temperature;humidity
42067;BME280;27734;47.028;28.820;2023-05-01T00:02:10;100327.84;;;8.17;56.27
42067;BME280;27734;47.028;28.820;2023-05-01T00:04:39;100325.84;;;8.12;56.38
42067;BME280;27734;47.028;28.820;2023-05-01T00:07:07;100332.67;;;8.08;56.49
42067;BME280;27734;47.028;28.820;2023-05-01T00:09:36;100328.13;;;8.04;56.62
42067;BME280;27734;47.028;28.820;2023-05-01T00:12:05;100327.99;;;8.01;56.08
42067;BME280;27734;47.028;28.820;2023-05-01T00:14:33;100331.39;;;7.98;56.44
42067;BME280;27734;47.028;28.820;2023-05-01T00:17:02;100333.02;;;7.96;56.54
42067;BME280;27734;47.028;28.820;2023-05-01T00:19:30;100329.39;;;7.92;56.78
42067;BME280;27734;47.028;28.820;2023-05-01T00:21:59;100330.92;;;7.87;57.92
42067;BME280;27734;47.028;28.820;2023-05-01T00:24:28;100335.13;;;7.84;57.54
42067;BME280;27734;47.028;28.820;2023-05-01T00:26:56;100340.96;;;7.78;57.75
42067;BME280;27734;47.028;28.820;2023-05-01T00:29:25;100341.70;;;7.76;58.24
42067;BME280;27734;47.028;28.820;2023-05-01T00:31:54;100340.62;;;7.70;58.31
42067;BME280;27734;47.028;28.820;2023-05-01T00:34:23;100337.88;;;7.67;57.58
42067;BME280;27734;47.028;28.820;2023-05-01T00:36:52;100341.23;;;7.65;57.92
42067;BME280;27734;47.028;28.820;2023-05-01T00:39:20;100336.92;;;7.65;57.68
42067;BME280;27734;47.028;28.820;2023-05-01T00:41:49;100334.23;;;7.64;57.81
42067;BME280;27734;47.028;28.820;2023-05-01T00:44:17;100340.34;;;7.64;58.01
42067;BME280;27734;47.028;28.820;2023-05-01T00:46:46;100335.05;;;7.63;57.94
42067;BME280;27734;47.028;28.820;2023-05-01T00:49:15;100340.27;;;7.63;58.10
42067;BME280;27734;47.028;28.820;2023-05-01T00:51:47;100342.89;;;7.63;58.56
42067;BME280;27734;47.028;28.820;2023-05-01T00:54:16;100368.80;;;7.58;60.12
42067;BME280;27734;47.028;28.820;2023-05-01T00:56:46;100385.06;;;7.52;61.25
42067;BME280;27734;47.028;28.820;2023-05-01T00:59:15;100373.97;;;7.38;60.23
42067;BME280;27734;47.028;28.820;2023-05-01T01:01:43;100376.26;;;7.31;60.97
42067;BME280;27734;47.028;28.820;2023-05-01T01:04:12;100389.17;;;7.28;61.38
42067;BME280;27734;47.028;28.820;2023-05-01T01:06:46;100376.86;;;7.25;60.93
42067;BME280;27734;47.028;28.820;2023-05-01T01:09:25;100361.94;;;7.23;60.65
42067;BME280;27734;47.028;28.820;2023-05-01T01:12:05;100370.61;;;7.22;60.30
42067;BME280;27734;47.028;28.820;2023-05-01T01:14:41;100361.86;;;7.21;60.24
42067;BME280;27734;47.028;28.820;2023-05-01T01:17:19;100372.23;;;7.19;60.68
42067;BME280;27734;47.028;28.820;2023-05-01T01:20:16;100357.20;;;7.14;60.39
42067;BME280;27734;47.028;28.820;2023-05-01T01:22:52;100357.94;;;7.11;61.25
42067;BME280;27734;47.028;28.820;2023-05-01T01:25:56;100351.69;;;7.08;61.33
42067;BME280;27734;47.028;28.820;2023-05-01T01:31:55;100342.73;;;7.02;61.30
42067;BME280;27734;47.028;28.820;2023-05-01T01:34:29;100360.18;;;7.04;62.52
42067;BME280;27734;47.028;28.820;2023-05-01T01:37:04;100359.15;;;7.00;61.98
42067;BME280;27734;47.028;28.820;2023-05-01T01:39:44;100349.52;;;6.99;61.97
42067;BME280;27734;47.028;28.820;2023-05-01T01:42:18;100366.91;;;6.98;62.23
42067;BME280;27734;47.028;28.820;2023-05-01T01:44:51;100372.78;;;6.94;62.10
42067;BME280;27734;47.028;28.820;2023-05-01T01:47:23;100372.63;;;6.91;62.24
42067;BME280;27734;47.028;28.820;2023-05-01T01:49:55;100362.94;;;6.89;62.28
42067;BME280;27734;47.028;28.820;2023-05-01T01:52:26;100378.51;;;6.87;63.33
42067;BME280;27734;47.028;28.820;2023-05-01T01:55:02;100371.38;;;6.83;62.67
42067;BME280;27734;47.028;28.820;2023-05-01T01:57:34;100377.33;;;6.80;62.34
42067;BME280;27734;47.028;28.820;2023-05-01T02:00:05;100385.00;;;6.77;63.33
42067;BME280;27734;47.028;28.820;2023-05-01T02:02:41;100388.22;;;6.72;62.86
42067;BME280;27734;47.028;28.820;2023-05-01T02:05:13;100387.16;;;6.68;64.04
42067;BME280;27734;47.028;28.820;2023-05-01T02:07:46;100384.32;;;6.63;63.67
42067;BME280;27734;47.028;28.820;2023-05-01T02:10:16;100390.38;;;6.62;63.50
42067;BME280;27734;47.028;28.820;2023-05-01T02:12:46;100387.61;;;6.59;63.85
42067;BME280;27734;47.028;28.820;2023-05-01T02:15:17;100385.81;;;6.58;63.64
42067;BME280;27734;47.028;28.820;2023-05-01T02:17:47;100393.71;;;6.60;64.16
42067;BME280;27734;47.028;28.820;2023-05-01T02:20:18;100399.66;;;6.57;63.87
42067;BME280;27734;47.028;28.820;2023-05-01T02:22:49;100399.50;;;6.54;63.58
42067;BME280;27734;47.028;28.820;2023-05-01T02:25:19;100399.42;;;6.53;63.90
42067;BME280;27734;47.028;28.820;2023-05-01T02:27:53;100403.75;;;6.52;64.73
42067;BME280;27734;47.028;28.820;2023-05-01T02:30:23;100411.58;;;6.52;64.35
42067;BME280;27734;47.028;28.820;2023-05-01T02:32:51;100413.37;;;6.53;63.94
42067;BME280;27734;47.028;28.820;2023-05-01T02:35:20;100416.86;;;6.54;63.90
42067;BME280;27734;47.028;28.820;2023-05-01T02:37:49;100417.83;;;6.56;64.26
42067;BME280;27734;47.028;28.820;2023-05-01T02:40:38;100416.22;;;6.58;64.83
42067;BME280;27734;47.028;28.820;2023-05-01T02:43:09;100426.64;;;6.58;64.55
42067;BME280;27734;47.028;28.820;2023-05-01T02:45:41;100431.86;;;6.58;64.13
42067;BME280;27734;47.028;28.820;2023-05-01T02:48:14;100433.78;;;6.62;64.39
42067;BME280;27734;47.028;28.820;2023-05-01T02:50:44;100427.03;;;6.65;64.39
42067;BME280;27734;47.028;28.820;2023-05-01T02:53:14;100432.40;;;6.69;63.69
42067;BME280;27734;47.028;28.820;2023-05-01T02:55:56;100437.01;;;6.74;63.77
42067;BME280;27734;47.028;28.820;2023-05-01T02:58:25;100429.41;;;6.79;64.11
42067;BME280;27734;47.028;28.820;2023-05-01T03:00:53;100434.70;;;6.80;64.05
42067;BME280;27734;47.028;28.820;2023-05-01T03:03:22;100432.17;;;6.82;64.40
42067;BME280;27734;47.028;28.820;2023-05-01T03:05:50;100440.91;;;6.82;64.65
42067;BME280;27734;47.028;28.820;2023-05-01T03:08:19;100445.30;;;6.83;64.45
42067;BME280;27734;47.028;28.820;2023-05-01T03:10:47;100447.09;;;6.84;64.63
42067;BME280;27734;47.028;28.820;2023-05-01T03:13:16;100448.05;;;6.87;65.01
42067;BME280;27734;47.028;28.820;2023-05-01T03:15:45;100454.16;;;6.87;65.80
42067;BME280;27734;47.028;28.820;2023-05-01T03:18:13;100455.15;;;6.89;65.83
42067;BME280;27734;47.028;28.820;2023-05-01T03:20:50;100445.75;;;6.93;65.33
42067;BME280;27734;47.028;28.820;2023-05-01T03:23:20;100457.37;;;6.99;65.58
42067;BME280;27734;47.028;28.820;2023-05-01T03:25:48;100455.98;;;7.06;65.31
42067;BME280;27734;47.028;28.820;2023-05-01T03:28:17;100458.05;;;7.13;66.04
42067;BME280;27734;47.028;28.820;2023-05-01T03:30:46;100460.16;;;7.20;66.74
42067;BME280;27734;47.028;28.820;2023-05-01T03:33:14;100467.47;;;7.28;67.34
42067;BME280;27734;47.028;28.820;2023-05-01T03:35:43;100473.95;;;7.36;67.97
42067;BME280;27734;47.028;28.820;2023-05-01T03:38:12;100470.71;;;7.42;67.66
42067;BME280;27734;47.028;28.820;2023-05-01T03:40:59;100476.38;;;7.51;67.77
42067;BME280;27734;47.028;28.820;2023-05-01T03:43:27;100474.13;;;7.59;67.90
42067;BME280;27734;47.028;28.820;2023-05-01T03:45:56;100475.41;;;7.67;69.56
42067;BME280;27734;47.028;28.820;2023-05-01T03:48:26;100479.33;;;7.77;69.56
42067;BME280;27734;47.028;28.820;2023-05-01T03:50:54;100478.03;;;7.86;69.43
42067;BME280;27734;47.028;28.820;2023-05-01T03:53:24;100481.89;;;7.95;69.35
42067;BME280;27734;47.028;28.820;2023-05-01T03:55:53;100481.50;;;8.05;69.92
42067;BME280;27734;47.028;28.820;2023-05-01T03:58:22;100477.64;;;8.16;70.41
42067;BME280;27734;47.028;28.820;2023-05-01T04:00:51;100483.34;;;8.27;69.46
42067;BME280;27734;47.028;28.820;2023-05-01T04:03:24;100496.02;;;8.37;70.25
42067;BME280;27734;47.028;28.820;2023-05-01T04:05:53;100491.30;;;8.48;70.21
42067;BME280;27734;47.028;28.820;2023-05-01T04:08:22;100491.70;;;8.57;69.85
42067;BME280;27734;47.028;28.820;2023-05-01T04:10:50;100487.75;;;8.67;71.46
42067;BME280;27734;47.028;28.820;2023-05-01T04:13:19;100498.61;;;8.76;70.68
42067;BME280;27734;47.028;28.820;2023-05-01T04:15:47;100494.66;;;8.86;70.43
42067;BME280;27734;47.028;28.820;2023-05-01T04:18:16;100502.08;;;8.96;71.22
42067;BME280;27734;47.028;28.820;2023-05-01T04:20:45;100509.47;;;9.07;72.27
42067;BME280;27734;47.028;28.820;2023-05-01T04:23:13;100501.18;;;9.17;71.58
42067;BME280;27734;47.028;28.820;2023-05-01T04:25:42;100510.30;;;9.27;72.32
42067;BME280;27734;47.028;28.820;2023-05-01T04:28:13;100502.95;;;9.39;71.62
42067;BME280;27734;47.028;28.820;2023-05-01T04:30:41;100510.60;;;9.56;73.92
42067;BME280;27734;47.028;28.820;2023-05-01T04:33:10;100497.99;;;9.68;74.92
42067;BME280;27734;47.028;28.820;2023-05-01T04:35:40;100502.80;;;9.80;73.90
42067;BME280;27734;47.028;28.820;2023-05-01T04:38:09;100506.02;;;9.95;74.04
42067;BME280;27734;47.028;28.820;2023-05-01T04:40:37;100517.14;;;10.12;74.57
42067;BME280;27734;47.028;28.820;2023-05-01T04:43:06;100509.08;;;10.30;74.64
42067;BME280;27734;47.028;28.820;2023-05-01T04:45:36;100523.84;;;10.51;74.07
42067;BME280;27734;47.028;28.820;2023-05-01T04:48:06;100516.63;;;10.69;74.57
42067;BME280;27734;47.028;28.820;2023-05-01T04:50:34;100522.42;;;10.85;75.26
42067;BME280;27734;47.028;28.820;2023-05-01T04:53:04;100535.87;;;10.94;74.74
42067;BME280;27734;47.028;28.820;2023-05-01T04:55:33;100541.34;;;11.00;74.48
42067;BME280;27734;47.028;28.820;2023-05-01T04:58:09;100536.14;;;11.02;73.97
42067;BME280;27734;47.028;28.820;2023-05-01T05:00:38;100541.45;;;11.03;74.53
42067;BME280;27734;47.028;28.820;2023-05-01T05:03:07;100546.64;;;11.02;74.84
42067;BME280;27734;47.028;28.820;2023-05-01T05:05:36;100548.45;;;11.04;73.58
42067;BME280;27734;47.028;28.820;2023-05-01T05:08:05;100557.38;;;11.09;73.50
42067;BME280;27734;47.028;28.820;2023-05-01T05:10:38;100565.36;;;11.12;74.59
42067;BME280;27734;47.028;28.820;2023-05-01T05:13:36;100577.83;;;11.18;74.77
42067;BME280;27734;47.028;28.820;2023-05-01T05:16:29;100575.46;;;11.26;74.11
42067;BME280;27734;47.028;28.820;2023-05-01T05:18:58;100576.50;;;11.31;74.09
42067;BME280;27734;47.028;28.820;2023-05-01T05:21:28;100583.71;;;11.37;73.80
42067;BME280;27734;47.028;28.820;2023-05-01T05:23:58;100583.19;;;11.47;73.49
42067;BME280;27734;47.028;28.820;2023-05-01T05:26:27;100590.47;;;11.56;73.75
42067;BME280;27734;47.028;28.820;2023-05-01T05:28:58;100589.78;;;11.61;73.70
42067;BME280;27734;47.028;28.820;2023-05-01T05:31:26;100586.45;;;11.67;73.26
42067;BME280;27734;47.028;28.820;2023-05-01T05:33:55;100591.91;;;11.73;73.20
42067;BME280;27734;47.028;28.820;2023-05-01T05:36:24;100590.39;;;11.80;72.73
42067;BME280;27734;47.028;28.820;2023-05-01T05:38:55;100603.78;;;11.87;73.18
42067;BME280;27734;47.028;28.820;2023-05-01T05:41:24;100597.00;;;11.94;73.08
42067;BME280;27734;47.028;28.820;2023-05-01T05:43:55;100599.05;;;12.03;73.02
42067;BME280;27734;47.028;28.820;2023-05-01T05:46:24;100597.63;;;12.14;72.68
42067;BME280;27734;47.028;28.820;2023-05-01T05:48:52;100605.03;;;12.28;72.35
42067;BME280;27734;47.028;28.820;2023-05-01T05:51:21;100601.94;;;12.41;71.70
42067;BME280;27734;47.028;28.820;2023-05-01T05:53:50;100614.36;;;12.45;71.60
42067;BME280;27734;47.028;28.820;2023-05-01T05:56:19;100603.92;;;12.48;70.67
42067;BME280;27734;47.028;28.820;2023-05-01T05:58:47;100612.13;;;12.59;71.24
42067;BME280;27734;47.028;28.820;2023-05-01T06:01:16;100606.31;;;12.71;70.49
42067;BME280;27734;47.028;28.820;2023-05-01T06:03:44;100606.66;;;12.83;69.47
42067;BME280;27734;47.028;28.820;2023-05-01T06:06:13;100613.11;;;12.94;68.95
42067;BME280;27734;47.028;28.820;2023-05-01T06:08:42;100615.12;;;13.03;68.37
42067;BME280;27734;47.028;28.820;2023-05-01T06:11:13;100608.43;;;13.16;68.43
42067;BME280;27734;47.028;28.820;2023-05-01T06:13:42;100622.86;;;13.30;68.17
42067;BME280;27734;47.028;28.820;2023-05-01T06:16:11;100620.34;;;13.34;66.73
42067;BME280;27734;47.028;28.820;2023-05-01T06:18:40;100615.91;;;13.33;66.01
42067;BME280;27734;47.028;28.820;2023-05-01T06:21:08;100625.81;;;13.41;66.26
42067;BME280;27734;47.028;28.820;2023-05-01T06:23:37;100616.38;;;13.50;64.99
42067;BME280;27734;47.028;28.820;2023-05-01T06:26:24;100619.02;;;13.50;64.87
42067;BME280;27734;47.028;28.820;2023-05-01T06:28:53;100622.61;;;13.53;65.37
42067;BME280;27734;47.028;28.820;2023-05-01T06:31:22;100627.97;;;13.56;64.83
42067;BME280;27734;47.028;28.820;2023-05-01T06:33:53;100636.80;;;13.58;64.23
42067;BME280;27734;47.028;28.820;2023-05-01T06:36:48;100627.05;;;13.54;62.81
42067;BME280;27734;47.028;28.820;2023-05-01T06:39:17;100641.23;;;13.59;62.02
42067;BME280;27734;47.028;28.820;2023-05-01T06:41:46;100639.16;;;13.47;62.30
42067;BME280;27734;47.028;28.820;2023-05-01T06:44:15;100649.53;;;13.41;63.38
42067;BME280;27734;47.028;28.820;2023-05-01T06:46:44;100649.33;;;13.34;63.09
42067;BME280;27734;47.028;28.820;2023-05-01T06:49:13;100656.44;;;13.36;62.45
42067;BME280;27734;47.028;28.820;2023-05-01T06:51:42;100652.34;;;13.47;62.84
42067;BME280;27734;47.028;28.820;2023-05-01T06:54:13;100651.02;;;13.63;62.78
42067;BME280;27734;47.028;28.820;2023-05-01T06:56:42;100664.67;;;13.83;62.68
42067;BME280;27734;47.028;28.820;2023-05-01T06:59:13;100669.56;;;14.03;61.55
42067;BME280;27734;47.028;28.820;2023-05-01T07:01:41;100666.41;;;14.18;60.22
42067;BME280;27734;47.028;28.820;2023-05-01T07:04:10;100671.10;;;14.31;61.53
42067;BME280;27734;47.028;28.820;2023-05-01T07:06:38;100660.86;;;14.45;60.09
42067;BME280;27734;47.028;28.820;2023-05-01T07:09:07;100655.08;;;14.60;59.52
42067;BME280;27734;47.028;28.820;2023-05-01T07:11:35;100652.80;;;14.79;58.33
42067;BME280;27734;47.028;28.820;2023-05-01T07:14:05;100651.20;;;14.85;55.75
42067;BME280;27734;47.028;28.820;2023-05-01T07:16:34;100670.04;;;15.02;57.14
42067;BME280;27734;47.028;28.820;2023-05-01T07:19:02;100665.70;;;15.06;56.40
42067;BME280;27734;47.028;28.820;2023-05-01T07:21:31;100686.30;;;15.22;54.08
42067;BME280;27734;47.028;28.820;2023-05-01T07:23:59;100680.34;;;15.34;56.79
42067;BME280;27734;47.028;28.820;2023-05-01T07:26:28;100687.51;;;15.40;54.03
42067;BME280;27734;47.028;28.820;2023-05-01T07:28:56;100688.50;;;15.46;53.81
42067;BME280;27734;47.028;28.820;2023-05-01T07:31:25;100694.76;;;15.52;53.91
42067;BME280;27734;47.028;28.820;2023-05-01T07:33:54;100694.08;;;15.62;54.83
42067;BME280;27734;47.028;28.820;2023-05-01T07:36:22;100702.21;;;15.73;54.71
42067;BME280;27734;47.028;28.820;2023-05-01T07:38:51;100696.25;;;15.85;54.29
42067;BME280;27734;47.028;28.820;2023-05-01T07:41:19;100702.44;;;15.84;53.22
42067;BME280;27734;47.028;28.820;2023-05-01T07:43:49;100698.02;;;15.84;54.11
42067;BME280;27734;47.028;28.820;2023-05-01T07:46:19;100697.20;;;15.87;54.03
42067;BME280;27734;47.028;28.820;2023-05-01T07:48:49;100708.35;;;15.72;52.39
42067;BME280;27734;47.028;28.820;2023-05-01T07:51:18;100702.92;;;15.64;53.53
42067;BME280;27734;47.028;28.820;2023-05-01T07:53:46;100704.55;;;15.56;53.04
42067;BME280;27734;47.028;28.820;2023-05-01T07:56:16;100710.69;;;15.55;52.89
42067;BME280;27734;47.028;28.820;2023-05-01T07:58:44;100713.98;;;15.41;52.31
42067;BME280;27734;47.028;28.820;2023-05-01T08:01:13;100716.44;;;15.32;52.06
42067;BME280;27734;47.028;28.820;2023-05-01T08:03:41;100719.69;;;15.19;52.65
42067;BME280;27734;47.028;28.820;2023-05-01T08:06:10;100701.94;;;15.12;53.38
42067;BME280;27734;47.028;28.820;2023-05-01T08:08:38;100717.54;;;14.99;53.19
42067;BME280;27734;47.028;28.820;2023-05-01T08:11:08;100712.09;;;14.91;52.93
42067;BME280;27734;47.028;28.820;2023-05-01T08:13:36;100713.75;;;14.88;52.76
42067;BME280;27734;47.028;28.820;2023-05-01T08:16:06;100716.33;;;14.85;53.07
42067;BME280;27734;47.028;28.820;2023-05-01T08:18:34;100735.77;;;14.87;52.77
42067;BME280;27734;47.028;28.820;2023-05-01T08:21:03;100733.06;;;14.84;52.45
42067;BME280;27734;47.028;28.820;2023-05-01T08:23:32;100723.38;;;14.84;51.40
42067;BME280;27734;47.028;28.820;2023-05-01T08:26:00;100725.27;;;14.90;52.01
42067;BME280;27734;47.028;28.820;2023-05-01T08:28:29;100732.55;;;15.02;51.72
42067;BME280;27734;47.028;28.820;2023-05-01T08:30:58;100733.78;;;15.18;51.68
42067;BME280;27734;47.028;28.820;2023-05-01T08:33:26;100730.63;;;15.37;51.58
42067;BME280;27734;47.028;28.820;2023-05-01T08:35:55;100723.85;;;15.52;51.11
42067;BME280;27734;47.028;28.820;2023-05-01T08:38:23;100728.55;;;15.67;50.31
42067;BME280;27734;47.028;28.820;2023-05-01T08:40:53;100740.24;;;15.78;50.59
42067;BME280;27734;47.028;28.820;2023-05-01T08:43:24;100732.53;;;15.90;51.18
42067;BME280;27734;47.028;28.820;2023-05-01T08:45:55;100735.42;;;16.04;49.79
42067;BME280;27734;47.028;28.820;2023-05-01T08:48:25;100739.98;;;16.13;48.12
42067;BME280;27734;47.028;28.820;2023-05-01T08:50:56;100728.66;;;16.23;49.51
42067;BME280;27734;47.028;28.820;2023-05-01T08:53:28;100729.72;;;16.34;49.48
42067;BME280;27734;47.028;28.820;2023-05-01T08:56:00;100739.48;;;16.37;46.95
42067;BME280;27734;47.028;28.820;2023-05-01T08:58:28;100736.86;;;16.39;47.06
42067;BME280;27734;47.028;28.820;2023-05-01T09:00:58;100744.58;;;16.25;46.91
42067;BME280;27734;47.028;28.820;2023-05-01T09:03:28;100737.69;;;16.36;46.55
42067;BME280;27734;47.028;28.820;2023-05-01T09:05:59;100733.38;;;16.41;47.48
42067;BME280;27734;47.028;28.820;2023-05-01T09:08:29;100740.59;;;16.53;46.09
42067;BME280;27734;47.028;28.820;2023-05-01T09:10:59;100745.83;;;16.48;45.78
42067;BME280;27734;47.028;28.820;2023-05-01T09:13:28;100750.31;;;16.52;45.83
42067;BME280;27734;47.028;28.820;2023-05-01T09:15:57;100755.44;;;16.42;44.52
42067;BME280;27734;47.028;28.820;2023-05-01T09:18:27;100747.42;;;16.37;44.95
42067;BME280;27734;47.028;28.820;2023-05-01T09:20:56;100743.11;;;16.44;45.85
42067;BME280;27734;47.028;28.820;2023-05-01T09:23:24;100742.39;;;16.54;45.19
42067;BME280;27734;47.028;28.820;2023-05-01T09:25:53;100754.88;;;16.61;44.56
42067;BME280;27734;47.028;28.820;2023-05-01T09:28:39;100747.73;;;16.57;44.56
42067;BME280;27734;47.028;28.820;2023-05-01T09:31:22;100746.02;;;16.61;43.62
42067;BME280;27734;47.028;28.820;2023-05-01T09:33:55;100763.68;;;16.60;41.37
42067;BME280;27734;47.028;28.820;2023-05-01T09:36:25;100760.81;;;16.46;40.91
42067;BME280;27734;47.028;28.820;2023-05-01T09:38:54;100750.27;;;16.49;42.69
42067;BME280;27734;47.028;28.820;2023-05-01T09:41:23;100746.81;;;16.53;42.43
42067;BME280;27734;47.028;28.820;2023-05-01T09:43:52;100752.98;;;16.54;40.86
42067;BME280;27734;47.028;28.820;2023-05-01T09:46:22;100742.34;;;16.51;42.67
42067;BME280;27734;47.028;28.820;2023-05-01T09:48:55;100746.02;;;16.61;41.77
42067;BME280;27734;47.028;28.820;2023-05-01T09:51:26;100748.66;;;16.61;41.20
42067;BME280;27734;47.028;28.820;2023-05-01T09:53:56;100747.06;;;16.70;41.21
42067;BME280;27734;47.028;28.820;2023-05-01T09:56:26;100768.33;;;16.75;41.05
42067;BME280;27734;47.028;28.820;2023-05-01T09:58:56;100745.34;;;16.74;42.05
42067;BME280;27734;47.028;28.820;2023-05-01T10:01:43;100744.41;;;16.70;38.34
42067;BME280;27734;47.028;28.820;2023-05-01T10:04:12;100733.97;;;16.81;39.13
42067;BME280;27734;47.028;28.820;2023-05-01T10:06:41;100738.55;;;16.92;40.16
42067;BME280;27734;47.028;28.820;2023-05-01T10:09:09;100739.48;;;16.97;39.52
42067;BME280;27734;47.028;28.820;2023-05-01T10:11:49;100742.13;;;16.97;39.36
42067;BME280;27734;47.028;28.820;2023-05-01T10:14:18;100730.69;;;16.99;39.54
42067;BME280;27734;47.028;28.820;2023-05-01T10:16:48;100744.05;;;17.07;40.24
42067;BME280;27734;47.028;28.820;2023-05-01T10:19:19;100744.97;;;17.11;39.87
42067;BME280;27734;47.028;28.820;2023-05-01T10:21:48;100746.73;;;17.10;39.13
42067;BME280;27734;47.028;28.820;2023-05-01T10:24:17;100743.28;;;17.16;39.28
42067;BME280;27734;47.028;28.820;2023-05-01T10:26:48;100753.88;;;17.14;37.51
42067;BME280;27734;47.028;28.820;2023-05-01T10:29:18;100748.53;;;17.11;38.55
42067;BME280;27734;47.028;28.820;2023-05-01T10:31:48;100743.27;;;17.14;38.57
42067;BME280;27734;47.028;28.820;2023-05-01T10:34:18;100745.14;;;17.24;38.63
42067;BME280;27734;47.028;28.820;2023-05-01T10:36:53;100737.30;;;17.34;38.37
42067;BME280;27734;47.028;28.820;2023-05-01T10:39:31;100743.53;;;17.36;37.33
42067;BME280;27734;47.028;28.820;2023-05-01T10:42:04;100733.82;;;17.38;36.54
42067;BME280;27734;47.028;28.820;2023-05-01T10:44:33;100736.47;;;17.38;37.48
42067;BME280;27734;47.028;28.820;2023-05-01T10:50:07;100744.50;;;17.44;36.75
42067;BME280;27734;47.028;28.820;2023-05-01T10:53:17;100743.64;;;17.48;35.59
42067;BME280;27734;47.028;28.820;2023-05-01T10:55:47;100735.63;;;17.43;34.22
42067;BME280;27734;47.028;28.820;2023-05-01T11:01:31;100737.28;;;17.32;33.10
42067;BME280;27734;47.028;28.820;2023-05-01T11:04:01;100751.50;;;17.39;32.91
42067;BME280;27734;47.028;28.820;2023-05-01T11:06:31;100744.50;;;17.44;33.82
42067;BME280;27734;47.028;28.820;2023-05-01T11:09:00;100747.23;;;17.50;32.46
42067;BME280;27734;47.028;28.820;2023-05-01T11:11:48;100749.90;;;17.52;31.62
42067;BME280;27734;47.028;28.820;2023-05-01T11:14:17;100730.45;;;17.54;33.49
42067;BME280;27734;47.028;28.820;2023-05-01T11:16:46;100754.33;;;17.54;33.00
42067;BME280;27734;47.028;28.820;2023-05-01T11:22:17;100757.84;;;17.50;31.11
42067;BME280;27734;47.028;28.820;2023-05-01T11:24:46;100754.34;;;17.56;30.82
42067;BME280;27734;47.028;28.820;2023-05-01T11:27:16;100747.31;;;17.58;30.99
42067;BME280;27734;47.028;28.820;2023-05-01T11:29:45;100745.63;;;17.66;33.10
42067;BME280;27734;47.028;28.820;2023-05-01T11:32:20;100758.08;;;17.72;31.40
42067;BME280;27734;47.028;28.820;2023-05-01T11:34:51;100756.34;;;17.75;31.88
42067;BME280;27734;47.028;28.820;2023-05-01T11:37:20;100758.05;;;17.69;29.07
42067;BME280;27734;47.028;28.820;2023-05-01T11:40:18;100759.77;;;17.67;29.79
42067;BME280;27734;47.028;28.820;2023-05-01T11:42:48;100765.05;;;17.64;27.84
42067;BME280;27734;47.028;28.820;2023-05-01T11:45:18;100758.83;;;17.60;27.38
42067;BME280;27734;47.028;28.820;2023-05-01T11:47:47;100765.09;;;17.68;28.63
42067;BME280;27734;47.028;28.820;2023-05-01T11:50:16;100765.14;;;17.73;29.18
42067;BME280;27734;47.028;28.820;2023-05-01T11:52:46;100768.73;;;17.75;28.53
42067;BME280;27734;47.028;28.820;2023-05-01T11:55:16;100751.05;;;17.77;28.96
42067;BME280;27734;47.028;28.820;2023-05-01T11:57:46;100751.94;;;17.79;29.06
42067;BME280;27734;47.028;28.820;2023-05-01T12:00:24;100757.31;;;17.85;29.78
42067;BME280;27734;47.028;28.820;2023-05-01T12:02:57;100756.46;;;17.88;28.68
42067;BME280;27734;47.028;28.820;2023-05-01T12:05:27;100760.06;;;17.91;28.21
42067;BME280;27734;47.028;28.820;2023-05-01T12:08:14;100758.29;;;17.89;28.61
42067;BME280;27734;47.028;28.820;2023-05-01T12:10:46;100748.55;;;17.89;28.99
42067;BME280;27734;47.028;28.820;2023-05-01T12:13:15;100748.61;;;17.95;28.90
42067;BME280;27734;47.028;28.820;2023-05-01T12:15:45;100751.30;;;17.99;28.85
42067;BME280;27734;47.028;28.820;2023-05-01T12:18:16;100755.70;;;18.00;28.30
42067;BME280;27734;47.028;28.820;2023-05-01T12:20:47;100757.47;;;17.98;27.23
42067;BME280;27734;47.028;28.820;2023-05-01T12:23:17;100751.33;;;18.03;28.31
42067;BME280;27734;47.028;28.820;2023-05-01T12:25:46;100749.57;;;18.05;28.08
42067;BME280;27734;47.028;28.820;2023-05-01T12:28:16;100749.59;;;18.07;28.17
42067;BME280;27734;47.028;28.820;2023-05-01T12:30:47;100744.27;;;18.07;28.29
42067;BME280;27734;47.028;28.820;2023-05-01T12:33:17;100769.05;;;18.07;24.81
42067;BME280;27734;47.028;28.820;2023-05-01T12:35:48;100756.66;;;18.05;27.17
42067;BME280;27734;47.028;28.820;2023-05-01T12:38:17;100761.05;;;18.03;26.64
42067;BME280;27734;47.028;28.820;2023-05-01T12:40:52;100767.30;;;18.06;27.00
42067;BME280;27734;47.028;28.820;2023-05-01T12:43:30;100759.34;;;18.08;27.40
42067;BME280;27734;47.028;28.820;2023-05-01T12:46:00;100758.41;;;18.04;27.50
42067;BME280;27734;47.028;28.820;2023-05-01T12:48:29;100760.15;;;18.01;25.42
42067;BME280;27734;47.028;28.820;2023-05-01T12:50:59;100763.73;;;18.06;27.08
42067;BME280;27734;47.028;28.820;2023-05-01T12:53:29;100765.50;;;18.05;26.42
42067;BME280;27734;47.028;28.820;2023-05-01T12:55:58;100752.21;;;18.04;27.30
42067;BME280;27734;47.028;28.820;2023-05-01T12:58:35;100756.69;;;18.08;27.29
42067;BME280;27734;47.028;28.820;2023-05-01T13:01:04;100755.84;;;18.15;27.53
42067;BME280;27734;47.028;28.820;2023-05-01T13:03:33;100755.91;;;18.23;26.65
42067;BME280;27734;47.028;28.820;2023-05-01T13:06:03;100756.73;;;18.12;27.25
42067;BME280;27734;47.028;28.820;2023-05-01T13:08:34;100750.53;;;18.15;27.60
42067;BME280;27734;47.028;28.820;2023-05-01T13:11:10;100753.24;;;18.21;28.35
42067;BME280;27734;47.028;28.820;2023-05-01T13:13:40;100760.34;;;18.22;28.41
42067;BME280;27734;47.028;28.820;2023-05-01T13:16:11;100755.06;;;18.25;28.34